Time;durP1;ratioP1;P1;durP2;ratioP2;P2;SDS_P1;SDS_P2;PMS_P1;PMS_P2;Temp;Humidity;BMP_temperature;BMP_pressure;BME280_temperature;BME280_humidity;BME280_pressure;Samples;Min_cycle;Max_cycle;Signal;HPM_P1;HPM_P2
2022/12/17 13:05:57;;;;;;;;;;;0.40;92.50;;;;;;5014619;28;1409;-68
2022/12/17 13:08:25;;;;;;;;;;;0.40;92.40;;;;;;5024743;28;1013;-69
2022/12/17 13:10:54;;;;;;;;;;;0.40;92.30;;;;;;5025995;28;2239;-69
2022/12/17 13:13:26;;;;;;;;;;;0.40;92.40;;;;;;5020576;28;2228;-69
2022/12/17 13:15:55;;;;;;;;;;;0.40;92.40;;;;;;5017797;28;2322;-67
2022/12/17 13:18:27;;;;;;;;;;;0.30;92.50;;;;;;5023733;28;2265;-69
2022/12/17 13:20:57;;;;;;;;;;;0.30;92.70;;;;;;5022719;28;1037;-68
2022/12/17 13:23:27;;;;;;;;;;;0.30;92.60;;;;;;5023754;28;1300;-69
2022/12/17 13:26:18;;;;;;;;;;;0.40;92.50;;;;;;5030957;28;1124;-69
2022/12/17 13:28:59;;;;;;;;;;;0.40;92.50;;;;;;5018195;28;2386;-69
2022/12/17 13:31:28;;;;;;;;;;;0.40;92.50;;;;;;5027310;28;2000;-71
2022/12/17 13:33:59;;;;;;;;;;;0.40;92.40;;;;;;5020478;28;1269;-69
2022/12/17 13:36:30;;;;;;;;;;;0.60;92.90;;;;;;5023782;28;1102;-69
2022/12/17 13:39:03;;;;;;;;;;;0.50;92.20;;;;;;5028512;28;1037;-68
2022/12/17 13:41:31;;;;;;;;;;;0.40;92.10;;;;;;5022152;28;1183;-68
2022/12/17 13:44:01;;;;;;;;;;;0.50;91.40;;;;;;5021465;28;2567;-68
2022/12/17 13:46:29;;;;;;;;;;;0.50;90.80;;;;;;5027131;28;1037;-68
2022/12/17 13:48:58;;;;;;;;;;;0.60;90.00;;;;;;5024823;28;1014;-68
2022/12/17 13:51:26;;;;;;;;;;;0.50;90.00;;;;;;5025557;28;1993;-70
2022/12/17 13:53:55;;;;;;;;;;;0.50;89.50;;;;;;5018305;28;2434;-69
2022/12/17 13:56:27;;;;;;;;;;;0.50;88.70;;;;;;5024338;28;2293;-74
2022/12/17 13:58:55;;;;;;;;;;;0.50;87.80;;;;;;5021260;28;2420;-73
2022/12/17 14:01:24;;;;;;;;;;;0.50;87.10;;;;;;5021284;28;2411;-73
2022/12/17 14:03:57;;;;;;;;;;;0.50;86.30;;;;;;5026540;28;1362;-74
2022/12/17 14:06:35;;;;;;;;;;;0.50;86.50;;;;;;5024210;28;1096;-74
2022/12/17 14:09:03;;;;;;;;;;;0.40;86.20;;;;;;5021881;28;1167;-73
2022/12/17 14:14:24;;;;;;;;;;;0.40;86.20;;;;;;5005684;28;1393;-72
2022/12/17 14:16:52;;;;;;;;;;;0.40;86.60;;;;;;5016587;28;1034;-74
2022/12/17 14:19:20;;;;;;;;;;;0.30;86.60;;;;;;5033870;28;1018;-73
2022/12/17 14:21:48;;;;;;;;;;;0.30;86.80;;;;;;5028483;28;1758;-73
2022/12/17 14:24:17;;;;;;;;;;;0.20;86.70;;;;;;5027290;28;1402;-73
2022/12/17 14:26:50;;;;;;;;;;;0.20;87.10;;;;;;5019545;28;1030;-72
2022/12/17 14:29:22;;;;;;;;;;;0.10;87.50;;;;;;5024521;28;1109;-73
2022/12/17 14:31:54;;;;;;;;;;;0.10;87.60;;;;;;5021980;28;1981;-73
2022/12/17 14:34:22;;;;;;;;;;;0.10;87.70;;;;;;5023165;28;1655;-74
2022/12/17 14:36:53;;;;;;;;;;;0.00;87.50;;;;;;5021408;28;974;-70
2022/12/17 14:39:23;;;;;;;;;;;0.00;88.00;;;;;;5023250;28;1093;-71
2022/12/17 14:44:42;;;;;;;;;;;-0.10;88.30;;;;;;5017807;28;1722;-71
2022/12/17 14:47:15;;;;;;;;;;;-0.20;88.70;;;;;;5021672;28;1647;-71
2022/12/17 14:49:49;;;;;;;;;;;-0.30;88.90;;;;;;5024800;28;1149;-70
2022/12/17 14:52:25;;;;;;;;;;;-0.30;89.10;;;;;;5028329;28;1911;-67
2022/12/17 14:54:53;;;;;;;;;;;-0.20;89.30;;;;;;5026778;28;1390;-70
2022/12/17 14:57:22;;;;;;;;;;;-0.40;89.50;;;;;;5015468;28;1407;-70
2022/12/17 14:59:51;;;;;;;;;;;-0.40;90.00;;;;;;5027849;28;1069;-71
2022/12/17 15:02:24;;;;;;;;;;;-0.50;90.10;;;;;;5024060;28;1067;-66
2022/12/17 15:04:55;;;;;;;;;;;-0.40;90.10;;;;;;5017282;28;1395;-66
2022/12/17 15:07:25;;;;;;;;;;;-0.30;90.00;;;;;;5022860;28;1741;-65
2022/12/17 15:09:53;;;;;;;;;;;-0.40;90.00;;;;;;5017084;28;1017;-65
2022/12/17 15:12:22;;;;;;;;;;;-0.40;90.00;;;;;;5023717;28;1979;-67
2022/12/17 15:14:50;;;;;;;;;;;-0.50;90.10;;;;;;5026447;28;1378;-67
2022/12/17 15:17:18;;;;;;;;;;;-0.50;90.30;;;;;;5015886;28;961;-66
2022/12/17 15:19:46;;;;;;;;;;;-0.60;90.40;;;;;;5016961;28;1353;-66
2022/12/17 15:22:22;;;;;;;;;;;-0.70;90.50;;;;;;5023364;28;1739;-66
2022/12/17 15:24:50;;;;;;;;;;;-0.70;90.70;;;;;;5024188;28;1311;-67
2022/12/17 15:27:17;;;;;;;;;;;-0.80;90.80;;;;;;5025012;28;961;-67
2022/12/17 15:29:47;;;;;;;;;;;-0.90;91.00;;;;;;5016863;28;1176;-66
2022/12/17 15:32:17;;;;;;;;;;;-1.00;91.10;;;;;;5021448;28;1975;-66
2022/12/17 15:34:45;;;;;;;;;;;-0.90;91.40;;;;;;5023961;28;1497;-66
2022/12/17 15:37:13;;;;;;;;;;;-1.10;91.40;;;;;;5023183;28;1064;-66
2022/12/17 15:39:41;;;;;;;;;;;-1.10;91.70;;;;;;5020713;28;1541;-66
2022/12/17 15:44:55;;;;;;;;;;;-1.20;91.90;;;;;;5024651;28;1505;-67
2022/12/17 15:47:23;;;;;;;;;;;-1.20;92.00;;;;;;5025854;28;1064;-66
2022/12/17 15:49:51;;;;;;;;;;;-1.30;92.20;;;;;;5016637;28;1727;-67
2022/12/17 15:52:19;;;;;;;;;;;-1.30;92.30;;;;;;5015119;28;1906;-65
2022/12/17 15:54:48;;;;;;;;;;;-1.30;92.40;;;;;;5027021;28;1443;-67
2022/12/17 15:57:15;;;;;;;;;;;-1.40;92.50;;;;;;5020044;28;1440;-67
2022/12/17 15:59:45;;;;;;;;;;;-1.50;92.70;;;;;;5026874;28;1288;-67
2022/12/17 16:02:14;;;;;;;;;;;-1.40;92.80;;;;;;5026236;28;1587;-68
2022/12/17 16:04:42;;;;;;;;;;;-1.40;92.70;;;;;;5028985;28;1648;-68
2022/12/17 16:07:10;;;;;;;;;;;-1.40;92.70;;;;;;5027358;28;1060;-66
2022/12/17 16:09:37;;;;;;;;;;;-1.40;92.70;;;;;;5020050;28;1846;-67
2022/12/17 16:12:05;;;;;;;;;;;-1.50;92.80;;;;;;5025869;28;1081;-67
2022/12/17 16:14:33;;;;;;;;;;;-1.40;92.90;;;;;;5023902;28;1970;-67
2022/12/17 16:17:00;;;;;;;;;;;-1.50;92.80;;;;;;5025192;28;1746;-65
2022/12/17 16:19:29;;;;;;;;;;;-1.50;92.70;;;;;;5021157;28;1034;-66
2022/12/17 16:21:57;;;;;;;;;;;-1.50;92.80;;;;;;5024141;28;1033;-67
2022/12/17 16:24:25;;;;;;;;;;;-1.60;92.80;;;;;;5023926;28;2024;-67
2022/12/17 16:26:52;;;;;;;;;;;-1.60;92.90;;;;;;5025223;28;1029;-66
2022/12/17 16:29:20;;;;;;;;;;;-1.60;92.90;;;;;;5027621;28;1056;-68
2022/12/17 16:31:48;;;;;;;;;;;-1.60;92.90;;;;;;5026306;28;1108;-66
2022/12/17 16:34:16;;;;;;;;;;;-1.60;93.00;;;;;;5032589;28;1992;-67
2022/12/17 16:36:45;;;;;;;;;;;-1.60;93.10;;;;;;5030155;28;1371;-67
2022/12/17 16:39:15;;;;;;;;;;;-1.60;93.10;;;;;;5026105;28;2161;-67
2022/12/17 16:41:42;;;;;;;;;;;-1.60;92.90;;;;;;5028015;28;1014;-67
2022/12/17 16:44:10;;;;;;;;;;;-1.40;93.00;;;;;;5019952;28;1297;-67
2022/12/17 16:46:38;;;;;;;;;;;-1.60;92.80;;;;;;5023860;28;1080;-67
2022/12/17 16:49:07;;;;;;;;;;;-1.60;92.70;;;;;;5022496;28;1675;-66
2022/12/17 16:51:35;;;;;;;;;;;-1.70;92.70;;;;;;5025194;28;1679;-65
2022/12/17 16:54:05;;;;;;;;;;;-1.70;92.50;;;;;;5025023;28;1902;-67
2022/12/17 16:56:33;;;;;;;;;;;-1.70;92.50;;;;;;5025067;28;1074;-66
2022/12/17 16:59:07;;;;;;;;;;;-1.70;93.10;;;;;;5021588;28;1258;-66
2022/12/17 17:01:35;;;;;;;;;;;-1.70;92.70;;;;;;5018126;28;1208;-67
2022/12/17 17:04:03;;;;;;;;;;;-1.80;92.90;;;;;;5022191;28;1281;-70
2022/12/17 17:06:31;;;;;;;;;;;-1.70;92.80;;;;;;5020240;28;1032;-70
2022/12/17 17:09:03;;;;;;;;;;;-1.80;92.70;;;;;;5030796;28;1651;-71
2022/12/17 17:11:31;;;;;;;;;;;-1.80;92.70;;;;;;5024530;28;1500;-70
2022/12/17 17:13:59;;;;;;;;;;;-1.80;92.70;;;;;;5017842;28;1899;-69
2022/12/17 17:16:27;;;;;;;;;;;-1.90;92.70;;;;;;5027809;28;1073;-70
2022/12/17 17:18:54;;;;;;;;;;;-1.90;92.60;;;;;;5022566;28;1818;-70
2022/12/17 17:21:24;;;;;;;;;;;-1.90;92.70;;;;;;5017627;28;1113;-68
2022/12/17 17:23:52;;;;;;;;;;;-2.00;92.90;;;;;;5019083;28;1275;-70
2022/12/17 17:26:24;;;;;;;;;;;-2.00;93.00;;;;;;5025229;28;1069;-70
2022/12/17 17:28:53;;;;;;;;;;;-2.00;93.30;;;;;;5026079;28;1061;-69
2022/12/17 17:31:21;;;;;;;;;;;-2.00;93.10;;;;;;5027369;28;1159;-70
2022/12/17 17:33:53;;;;;;;;;;;-2.00;93.10;;;;;;5027945;28;2011;-70
2022/12/17 17:36:22;;;;;;;;;;;-2.10;93.30;;;;;;5029477;28;1155;-70
2022/12/17 17:38:50;;;;;;;;;;;-2.10;93.30;;;;;;5026642;28;1277;-69
2022/12/17 17:41:19;;;;;;;;;;;-2.10;93.30;;;;;;5027125;28;1092;-69
2022/12/17 17:43:47;;;;;;;;;;;-2.10;93.30;;;;;;5023866;28;1397;-70
2022/12/17 17:46:17;;;;;;;;;;;-2.10;93.40;;;;;;5024809;28;1913;-70
2022/12/17 17:48:45;;;;;;;;;;;-2.20;93.30;;;;;;5028136;28;1104;-70
2022/12/17 17:51:14;;;;;;;;;;;-2.20;93.40;;;;;;5026744;28;1505;-70
2022/12/17 17:53:42;;;;;;;;;;;-2.30;93.30;;;;;;5026705;28;1974;-70
2022/12/17 17:56:13;;;;;;;;;;;-2.30;93.30;;;;;;5025154;28;1553;-71
2022/12/17 17:58:42;;;;;;;;;;;-2.00;93.60;;;;;;5025169;28;1587;-69
2022/12/17 18:01:11;;;;;;;;;;;-2.20;93.50;;;;;;5025567;28;1604;-68
2022/12/17 18:03:43;;;;;;;;;;;-2.20;93.40;;;;;;5026846;28;2051;-68
2022/12/17 18:06:12;;;;;;;;;;;-2.20;93.30;;;;;;5027611;28;1305;-69
2022/12/17 18:08:40;;;;;;;;;;;-2.30;93.40;;;;;;5029258;28;995;-68
2022/12/17 18:11:10;;;;;;;;;;;-2.30;93.50;;;;;;5026656;28;1156;-68
2022/12/17 18:13:55;;;;;;;;;;;-2.30;93.50;;;;;;5025167;28;1926;-69
2022/12/17 18:16:23;;;;;;;;;;;-2.40;93.40;;;;;;5026948;28;1148;-70
2022/12/17 18:18:54;;;;;;;;;;;-2.40;93.80;;;;;;5028229;28;1599;-69
2022/12/17 18:21:22;;;;;;;;;;;-2.40;93.50;;;;;;5021868;28;1758;-69
2022/12/17 18:23:54;;;;;;;;;;;-2.40;93.50;;;;;;5024267;28;1484;-68
2022/12/17 18:26:22;;;;;;;;;;;-2.50;93.50;;;;;;5021893;28;1119;-67
2022/12/17 18:28:49;;;;;;;;;;;-2.50;93.50;;;;;;5024094;28;1300;-69
2022/12/17 18:31:18;;;;;;;;;;;-2.50;93.50;;;;;;5023062;28;1107;-69
2022/12/17 18:33:50;;;;;;;;;;;-2.50;93.60;;;;;;5025784;28;1910;-68
2022/12/17 18:36:20;;;;;;;;;;;-2.60;93.60;;;;;;5025924;28;1673;-70
2022/12/17 18:38:48;;;;;;;;;;;-2.60;93.60;;;;;;5024900;28;1551;-69
2022/12/17 18:44:03;;;;;;;;;;;-2.60;93.70;;;;;;5026821;28;1362;-67
2022/12/17 18:46:31;;;;;;;;;;;-2.60;93.80;;;;;;5027886;28;1294;-67
2022/12/17 18:49:00;;;;;;;;;;;-2.70;93.80;;;;;;5023800;28;1581;-68
2022/12/17 18:51:29;;;;;;;;;;;-2.70;93.90;;;;;;5024914;28;1127;-69
2022/12/17 18:53:57;;;;;;;;;;;-2.80;93.90;;;;;;5022277;28;1891;-69
2022/12/17 18:56:25;;;;;;;;;;;-2.80;94.00;;;;;;5028208;28;1570;-67
2022/12/17 18:59:13;;;;;;;;;;;-2.80;94.10;;;;;;5028073;28;1797;-68
2022/12/17 19:01:42;;;;;;;;;;;-2.70;94.10;;;;;;5026791;28;1127;-69
2022/12/17 19:04:11;;;;;;;;;;;-2.70;94.10;;;;;;5027496;28;1334;-68
2022/12/17 19:06:40;;;;;;;;;;;-2.70;94.10;;;;;;5025902;28;1262;-69
2022/12/17 19:09:08;;;;;;;;;;;-2.60;94.20;;;;;;5026847;28;1155;-70
2022/12/17 19:11:36;;;;;;;;;;;-2.80;94.20;;;;;;5025371;28;1104;-69
2022/12/17 19:14:10;;;;;;;;;;;-2.80;94.20;;;;;;5026813;28;1903;-69
2022/12/17 19:16:37;;;;;;;;;;;-2.80;94.20;;;;;;5025423;28;1618;-68
2022/12/17 19:19:05;;;;;;;;;;;-2.70;94.10;;;;;;5027065;28;1337;-68
2022/12/17 19:21:33;;;;;;;;;;;-2.80;94.20;;;;;;5027347;28;1182;-68
2022/12/17 19:24:03;;;;;;;;;;;-2.80;94.30;;;;;;5025141;28;1500;-70
2022/12/17 19:26:32;;;;;;;;;;;-2.80;94.30;;;;;;5021251;28;1088;-68
2022/12/17 19:29:00;;;;;;;;;;;-2.90;94.30;;;;;;5027582;28;1162;-69
2022/12/17 19:31:29;;;;;;;;;;;-2.90;94.40;;;;;;5025472;28;1469;-69
2022/12/17 19:33:58;;;;;;;;;;;-2.90;94.40;;;;;;5022777;28;1334;-69
2022/12/17 19:36:27;;;;;;;;;;;-3.00;94.60;;;;;;5026440;28;1993;-67
2022/12/17 19:38:56;;;;;;;;;;;-3.00;94.50;;;;;;5023382;28;1420;-68
2022/12/17 19:41:26;;;;;;;;;;;-3.00;94.50;;;;;;5024666;28;1187;-69
2022/12/17 19:43:54;;;;;;;;;;;-3.00;94.40;;;;;;5022963;28;1417;-71
2022/12/17 19:46:22;;;;;;;;;;;-2.90;94.40;;;;;;5022123;28;1044;-71
2022/12/17 19:48:50;;;;;;;;;;;-2.90;94.40;;;;;;5027624;28;1041;-71
2022/12/17 19:51:20;;;;;;;;;;;-3.00;94.40;;;;;;5024458;28;981;-71
2022/12/17 19:53:48;;;;;;;;;;;-3.00;94.40;;;;;;5023370;28;1330;-69
2022/12/17 19:56:17;;;;;;;;;;;-3.00;94.40;;;;;;5024815;28;1975;-69
2022/12/17 19:58:47;;;;;;;;;;;-3.10;94.60;;;;;;5020009;28;1655;-68
2022/12/17 20:01:18;;;;;;;;;;;-3.20;94.50;;;;;;5024770;28;1298;-68
2022/12/17 20:03:46;;;;;;;;;;;-3.20;94.60;;;;;;5017769;28;1592;-68
2022/12/17 20:06:15;;;;;;;;;;;-3.20;94.50;;;;;;5027491;28;1279;-68
2022/12/17 20:08:43;;;;;;;;;;;-3.20;94.40;;;;;;5024097;28;1683;-68
2022/12/17 20:13:55;;;;;;;;;;;-3.20;94.40;;;;;;5022003;28;1512;-68
2022/12/17 20:16:23;;;;;;;;;;;-3.20;94.50;;;;;;5019028;28;1902;-68
2022/12/17 20:18:51;;;;;;;;;;;-3.30;94.80;;;;;;5030052;28;1022;-68
2022/12/17 20:21:18;;;;;;;;;;;-3.30;94.70;;;;;;5025992;28;1043;-68
2022/12/17 20:23:46;;;;;;;;;;;-3.30;94.70;;;;;;5029160;28;1285;-66
2022/12/17 20:26:15;;;;;;;;;;;-3.20;94.80;;;;;;5029809;28;1270;-68
2022/12/17 20:28:42;;;;;;;;;;;-3.40;95.00;;;;;;5031080;28;1069;-69
2022/12/17 20:31:12;;;;;;;;;;;-3.40;95.20;;;;;;5018474;28;991;-69
2022/12/17 20:33:39;;;;;;;;;;;-3.40;95.00;;;;;;5019559;28;1635;-68
2022/12/17 20:36:08;;;;;;;;;;;-3.30;94.80;;;;;;5025986;28;1914;-69
2022/12/17 20:38:36;;;;;;;;;;;-3.30;94.80;;;;;;5026642;28;1037;-69
2022/12/17 20:41:08;;;;;;;;;;;-3.40;94.90;;;;;;5027003;28;1375;-68
2022/12/17 20:43:36;;;;;;;;;;;-3.40;95.10;;;;;;5025118;28;1642;-67
2022/12/17 20:46:04;;;;;;;;;;;-3.40;95.10;;;;;;5026023;28;1183;-68
2022/12/17 20:48:33;;;;;;;;;;;-3.40;95.20;;;;;;5027375;28;1088;-69
2022/12/17 20:51:04;;;;;;;;;;;-3.40;95.00;;;;;;5031320;28;1001;-71
2022/12/17 20:53:31;;;;;;;;;;;-3.40;94.70;;;;;;5028614;28;1707;-69
2022/12/17 20:56:00;;;;;;;;;;;-3.30;94.70;;;;;;5036834;28;1969;-70
2022/12/17 20:58:27;;;;;;;;;;;-3.40;94.50;;;;;;5032238;28;1596;-70
2022/12/17 21:01:01;;;;;;;;;;;-3.50;94.60;;;;;;5041019;28;1584;-70
2022/12/17 21:03:31;;;;;;;;;;;-3.60;94.90;;;;;;5044101;28;1715;-69
2022/12/17 21:06:08;;;;;;;;;;;-3.60;95.00;;;;;;5037956;28;1346;-69
2022/12/17 21:08:36;;;;;;;;;;;-3.50;95.00;;;;;;5035101;28;1122;-69
2022/12/17 21:11:04;;;;;;;;;;;-3.60;95.10;;;;;;5035441;28;1013;-69
2022/12/17 21:13:32;;;;;;;;;;;-3.60;95.10;;;;;;5034802;28;1644;-68
2022/12/17 21:16:02;;;;;;;;;;;-3.60;95.20;;;;;;5037767;28;1964;-71
2022/12/17 21:18:30;;;;;;;;;;;-3.60;95.30;;;;;;5039460;28;1497;-71
2022/12/17 21:20:59;;;;;;;;;;;-3.60;95.10;;;;;;5031464;28;1087;-69
2022/12/17 21:23:29;;;;;;;;;;;-3.70;95.10;;;;;;5032690;28;1641;-72
2022/12/17 21:25:58;;;;;;;;;;;-3.50;95.40;;;;;;5029583;28;1169;-72
2022/12/17 21:28:26;;;;;;;;;;;-3.70;95.20;;;;;;5029523;28;1068;-72
2022/12/17 21:30:54;;;;;;;;;;;-3.70;95.20;;;;;;5034135;28;1124;-71
2022/12/17 21:33:22;;;;;;;;;;;-3.70;95.00;;;;;;5030135;28;1348;-72
2022/12/17 21:35:50;;;;;;;;;;;-3.60;94.80;;;;;;5038632;28;1985;-73
2022/12/17 21:38:17;;;;;;;;;;;-3.60;94.70;;;;;;5027301;28;1364;-71
2022/12/17 21:40:46;;;;;;;;;;;-3.70;95.00;;;;;;5035140;28;1832;-71
2022/12/17 21:43:14;;;;;;;;;;;-3.50;95.20;;;;;;5023237;28;1335;-72
2022/12/17 21:45:41;;;;;;;;;;;-3.80;95.10;;;;;;5035770;28;2011;-72
2022/12/17 21:48:10;;;;;;;;;;;-3.70;94.90;;;;;;5039336;28;1018;-71
2022/12/17 21:50:42;;;;;;;;;;;-3.70;94.80;;;;;;5039263;28;1107;-72
2022/12/17 21:53:10;;;;;;;;;;;-3.80;95.00;;;;;;5040566;28;1290;-71
2022/12/17 21:55:38;;;;;;;;;;;-3.80;95.00;;;;;;5039332;28;1970;-71
2022/12/17 21:58:07;;;;;;;;;;;-3.70;94.80;;;;;;5034994;28;1092;-72
2022/12/17 22:00:35;;;;;;;;;;;-3.80;94.90;;;;;;5029673;28;1053;-71
2022/12/17 22:03:03;;;;;;;;;;;-3.80;94.90;;;;;;5034552;28;1231;-72
2022/12/17 22:05:31;;;;;;;;;;;-3.80;94.80;;;;;;5029574;28;1169;-71
2022/12/17 22:07:58;;;;;;;;;;;-3.80;94.80;;;;;;5025427;28;822;-72
2022/12/17 22:10:26;;;;;;;;;;;-3.90;94.90;;;;;;5019132;28;1239;-73
2022/12/17 22:16:00;;;;;;;;;;;-3.90;94.70;;;;;;5027232;28;1906;-71
2022/12/17 22:18:27;;;;;;;;;;;-3.80;94.80;;;;;;5026874;28;1305;-72
2022/12/17 22:20:58;;;;;;;;;;;-3.90;94.70;;;;;;5017876;28;1115;-71
2022/12/17 22:23:27;;;;;;;;;;;-3.90;94.70;;;;;;5025585;28;1363;-71
2022/12/17 22:25:55;;;;;;;;;;;-3.90;94.70;;;;;;5024429;28;1503;-71
2022/12/17 22:28:24;;;;;;;;;;;-3.80;94.60;;;;;;5016330;28;1522;-71
2022/12/17 22:33:38;;;;;;;;;;;-3.80;94.40;;;;;;5017652;28;1295;-72
2022/12/17 22:36:27;;;;;;;;;;;-3.90;94.50;;;;;;5021001;28;2024;-71
2022/12/17 22:39:15;;;;;;;;;;;-4.00;94.70;;;;;;5028536;28;1586;-72
2022/12/17 22:45:10;;;;;;;;;;;-4.00;94.70;;;;;;5021261;28;1667;-72
2022/12/17 22:47:39;;;;;;;;;;;-4.00;94.30;;;;;;5022545;28;981;-72
2022/12/17 22:50:07;;;;;;;;;;;-4.00;94.20;;;;;;5023727;28;1220;-71
2022/12/17 22:52:35;;;;;;;;;;;-4.00;94.20;;;;;;5024955;28;1014;-71
2022/12/17 22:55:04;;;;;;;;;;;-4.00;94.20;;;;;;5022334;28;1331;-72
2022/12/17 22:57:32;;;;;;;;;;;-4.00;94.20;;;;;;5017979;28;1906;-71
2022/12/17 23:00:06;;;;;;;;;;;-4.10;94.40;;;;;;5022260;28;950;-72
2022/12/17 23:02:35;;;;;;;;;;;-4.10;94.60;;;;;;5019745;28;1076;-71
2022/12/17 23:05:03;;;;;;;;;;;-4.10;94.40;;;;;;5019316;28;1311;-71
2022/12/17 23:07:31;;;;;;;;;;;-4.10;94.10;;;;;;5028812;28;950;-70
2022/12/17 23:09:58;;;;;;;;;;;-4.10;94.20;;;;;;5016746;28;1073;-70
2022/12/17 23:15:11;;;;;;;;;;;-4.10;94.10;;;;;;5021889;28;1101;-70
2022/12/17 23:17:40;;;;;;;;;;;-4.20;94.40;;;;;;5014060;28;1906;-71
2022/12/17 23:20:09;;;;;;;;;;;-4.00;94.60;;;;;;5022286;28;1553;-71
2022/12/17 23:22:36;;;;;;;;;;;-4.20;94.60;;;;;;5024241;28;1013;-71
2022/12/17 23:25:04;;;;;;;;;;;-4.30;95.00;;;;;;5025236;28;1178;-72
2022/12/17 23:27:32;;;;;;;;;;;-4.20;94.70;;;;;;5021851;28;1094;-71
2022/12/17 23:30:00;;;;;;;;;;;-4.10;94.60;;;;;;5022158;28;1160;-70
2022/12/17 23:32:27;;;;;;;;;;;-4.20;94.50;;;;;;5022554;28;1002;-70
2022/12/17 23:34:56;;;;;;;;;;;-4.10;94.40;;;;;;5021718;28;1527;-71
2022/12/17 23:37:24;;;;;;;;;;;-4.20;94.60;;;;;;5020127;28;1997;-71
2022/12/17 23:39:51;;;;;;;;;;;-4.20;94.60;;;;;;5025359;28;1072;-69
2022/12/17 23:42:19;;;;;;;;;;;-4.30;94.50;;;;;;5024072;28;1064;-69
2022/12/17 23:44:46;;;;;;;;;;;-4.30;94.30;;;;;;5028521;28;1372;-69
2022/12/17 23:47:14;;;;;;;;;;;-4.30;94.30;;;;;;5023989;28;1042;-71
2022/12/17 23:49:42;;;;;;;;;;;-4.30;94.30;;;;;;5016972;28;1053;-72
2022/12/17 23:52:11;;;;;;;;;;;-4.30;94.40;;;;;;5022604;28;1532;-71
2022/12/17 23:54:38;;;;;;;;;;;-4.20;94.30;;;;;;5024587;28;1175;-71
2022/12/17 23:57:06;;;;;;;;;;;-4.20;94.40;;;;;;5024694;28;1982;-71
2022/12/17 23:59:33;;;;;;;;;;;-4.30;94.40;;;;;;5018331;28;1367;-71
